Pittsburgh, PA

11:14 AM EST on December 27, 2014 (GMT -0500)
Allegheny County | Change Station
CLOSE
Current Station
Airport
Location: Pittsburgh Allegheny Co.,
Elevation: 1253 ft
Nearby Weather Stations

Elev 1253 ft 40.35 °N, 79.92 °W | Updated 21 minutes ago

Overcast
Overcast
47 °F
Feels Like 47 °F
N
13
Wind Variable Wind from South

Today
High -- | Low -- °F
--% Chance of Precip.
Yesterday
High -- | Low -- °F
Precip. -- in
7:41 AM 4:59 PM
Waxing Crescent, 38% visible
Pressure 30.26 in
Visibility 10.0 miles
Clouds Mostly Cloudy 3900 ft
Dew Point 27 °F
Humidity 46%
Rainfall 0.00 in
Snow Depth Not available.
UV 1 out of 12
Pollen .10 out of 12
Air Quality Not available.
Flu Activity Not available.
METAR KAGC 271553Z 19011KT 10SM BKN039 08/M03 A3022 RMK AO2 SLP245 T00831028

More Conditions Fewer Conditions

Pressure 30.26 in
Visibility 10.0 miles
Clouds Mostly Cloudy 3900 ft
Dew Point 27 °F
Humidity 46%
Rainfall 0.00 in
Snow Depth Not available.
UV 1 out of 12
Pollen .10 out of 12
Air Quality Not available.
Flu Activity Not available.
METAR KAGC 271553Z 19011KT 10SM BKN039 08/M03 A3022 RMK AO2 SLP245 T00831028

More Conditions Fewer Conditions

10-Day Weather Forecast

Almanac

Astronomy

Dec. 27, 2014 Rise Set
Actual Time
Civil Twilight
Nautical Twilight
Astronomical Twilight
Moon
Length of Visible Light
Length of Day
Tomorrow will be .
, % of the Moon is Illuminated

Today's Extremes

State Highs State Lows

Community

WunderPhotos

Upload Photos

1,780,943 photos uploaded!

WunderBlogs® & News

Nearby

Air Quality

  Air Quality AQ Index Pollutant
Not available.

Snow Depth

Station Depth Elevation

Earthquake Activity

City Distance Mag. Time & Date
Minimum magnitude displayed is 2.5.

Coastal Water Temperatures

Place Temperature

Nearby Weather Stations